Terminal Aerodrome Forecast
Issued by NWS

Home | Current Version | Previous Version | Text Only | Print | Product List | Glossary On
Versions: 1 2 3 4 5 6 7 8 9 10 11 12 13 14 15 16 17 18 19
000
FTUS43 KGRB 272300
TAFATW
TAF
KATW 272336Z 2800/2824 36012G22KT P6SM SCT015 SCT030
      TEMPO 2800/2801 BKN030
     FM280200 36011KT P6SM SCT030
     FM280600 35009KT P6SM SKC
     FM281600 36010G16KT P6SM SCT040=

USA.gov is the U.S. government's official web portal to all federal, state and local government web resources and services.